sensor_id;sensor_type;location;lat;lon;timestamp;P1;durP1;ratioP1;P2;durP2;ratioP2
62332;SDS011;48624;49.812;8.562;2024-03-22T00:01:04;13.77;;;9.52;;
62332;SDS011;48624;49.812;8.562;2024-03-22T00:03:30;12.93;;;8.88;;
62332;SDS011;48624;49.812;8.562;2024-03-22T00:05:56;17.90;;;8.80;;
62332;SDS011;48624;49.812;8.562;2024-03-22T00:08:21;12.20;;;8.75;;
62332;SDS011;48624;49.812;8.562;2024-03-22T00:10:47;15.95;;;10.75;;
62332;SDS011;48624;49.812;8.562;2024-03-22T00:13:13;17.42;;;9.52;;
62332;SDS011;48624;49.812;8.562;2024-03-22T00:15:39;12.25;;;9.15;;
62332;SDS011;48624;49.812;8.562;2024-03-22T00:18:04;14.18;;;9.07;;
62332;SDS011;48624;49.812;8.562;2024-03-22T00:20:29;14.65;;;9.90;;
62332;SDS011;48624;49.812;8.562;2024-03-22T00:22:55;14.65;;;9.63;;
62332;SDS011;48624;49.812;8.562;2024-03-22T00:25:21;15.13;;;9.55;;
62332;SDS011;48624;49.812;8.562;2024-03-22T00:27:46;14.10;;;11.20;;
62332;SDS011;48624;49.812;8.562;2024-03-22T00:30:12;15.65;;;9.68;;
62332;SDS011;48624;49.812;8.562;2024-03-22T00:32:37;14.05;;;10.18;;
62332;SDS011;48624;49.812;8.562;2024-03-22T00:35:03;16.75;;;10.18;;
62332;SDS011;48624;49.812;8.562;2024-03-22T00:37:28;13.65;;;9.70;;
62332;SDS011;48624;49.812;8.562;2024-03-22T00:39:55;16.42;;;10.20;;
62332;SDS011;48624;49.812;8.562;2024-03-22T00:42:20;15.63;;;10.15;;
62332;SDS011;48624;49.812;8.562;2024-03-22T00:44:47;16.42;;;10.35;;
62332;SDS011;48624;49.812;8.562;2024-03-22T00:47:12;13.50;;;9.13;;
62332;SDS011;48624;49.812;8.562;2024-03-22T00:49:38;17.02;;;9.68;;
62332;SDS011;48624;49.812;8.562;2024-03-22T00:52:03;15.50;;;9.93;;
62332;SDS011;48624;49.812;8.562;2024-03-22T00:54:28;15.80;;;9.60;;
62332;SDS011;48624;49.812;8.562;2024-03-22T00:56:53;15.82;;;9.50;;
62332;SDS011;48624;49.812;8.562;2024-03-22T00:59:19;14.45;;;9.40;;
62332;SDS011;48624;49.812;8.562;2024-03-22T01:01:44;14.43;;;10.18;;
62332;SDS011;48624;49.812;8.562;2024-03-22T01:04:10;15.15;;;10.13;;
62332;SDS011;48624;49.812;8.562;2024-03-22T01:06:35;16.77;;;9.75;;
62332;SDS011;48624;49.812;8.562;2024-03-22T01:09:01;15.93;;;9.43;;
62332;SDS011;48624;49.812;8.562;2024-03-22T01:11:28;16.50;;;10.20;;
62332;SDS011;48624;49.812;8.562;2024-03-22T01:13:54;15.63;;;10.85;;
62332;SDS011;48624;49.812;8.562;2024-03-22T01:16:19;15.98;;;10.18;;
62332;SDS011;48624;49.812;8.562;2024-03-22T01:18:45;16.27;;;10.57;;
62332;SDS011;48624;49.812;8.562;2024-03-22T01:21:10;16.60;;;11.70;;
62332;SDS011;48624;49.812;8.562;2024-03-22T01:23:35;18.33;;;11.52;;
62332;SDS011;48624;49.812;8.562;2024-03-22T01:26:01;17.52;;;12.10;;
62332;SDS011;48624;49.812;8.562;2024-03-22T01:28:26;22.52;;;11.35;;
62332;SDS011;48624;49.812;8.562;2024-03-22T01:30:51;15.30;;;11.15;;
62332;SDS011;48624;49.812;8.562;2024-03-22T01:33:16;17.20;;;10.43;;
62332;SDS011;48624;49.812;8.562;2024-03-22T01:35:42;18.35;;;11.43;;
62332;SDS011;48624;49.812;8.562;2024-03-22T01:38:07;17.85;;;12.35;;
62332;SDS011;48624;49.812;8.562;2024-03-22T01:40:32;18.60;;;11.88;;
62332;SDS011;48624;49.812;8.562;2024-03-22T01:42:58;17.05;;;11.13;;
62332;SDS011;48624;49.812;8.562;2024-03-22T01:45:24;17.17;;;10.77;;
62332;SDS011;48624;49.812;8.562;2024-03-22T01:47:53;18.63;;;11.70;;
62332;SDS011;48624;49.812;8.562;2024-03-22T01:50:20;20.02;;;12.60;;
62332;SDS011;48624;49.812;8.562;2024-03-22T01:52:48;14.68;;;10.05;;
62332;SDS011;48624;49.812;8.562;2024-03-22T01:55:14;19.83;;;10.75;;
62332;SDS011;48624;49.812;8.562;2024-03-22T01:57:39;15.63;;;9.88;;
62332;SDS011;48624;49.812;8.562;2024-03-22T02:00:05;16.05;;;10.18;;
62332;SDS011;48624;49.812;8.562;2024-03-22T02:02:33;18.02;;;10.23;;
62332;SDS011;48624;49.812;8.562;2024-03-22T02:04:59;17.08;;;10.18;;
62332;SDS011;48624;49.812;8.562;2024-03-22T02:07:24;17.80;;;10.85;;
62332;SDS011;48624;49.812;8.562;2024-03-22T02:09:50;15.13;;;10.15;;
62332;SDS011;48624;49.812;8.562;2024-03-22T02:12:15;14.55;;;9.70;;
62332;SDS011;48624;49.812;8.562;2024-03-22T02:14:45;18.88;;;11.38;;
62332;SDS011;48624;49.812;8.562;2024-03-22T02:17:10;16.58;;;9.73;;
62332;SDS011;48624;49.812;8.562;2024-03-22T02:19:35;14.07;;;9.27;;
62332;SDS011;48624;49.812;8.562;2024-03-22T02:22:00;18.23;;;11.38;;
62332;SDS011;48624;49.812;8.562;2024-03-22T02:24:26;18.08;;;10.27;;
62332;SDS011;48624;49.812;8.562;2024-03-22T02:26:51;19.00;;;10.45;;
62332;SDS011;48624;49.812;8.562;2024-03-22T02:29:16;19.85;;;10.80;;
62332;SDS011;48624;49.812;8.562;2024-03-22T02:31:41;21.17;;;10.90;;
62332;SDS011;48624;49.812;8.562;2024-03-22T02:34:07;20.35;;;11.02;;
62332;SDS011;48624;49.812;8.562;2024-03-22T02:36:33;22.92;;;11.68;;
62332;SDS011;48624;49.812;8.562;2024-03-22T02:38:59;17.30;;;10.98;;
62332;SDS011;48624;49.812;8.562;2024-03-22T02:41:24;17.30;;;11.88;;
62332;SDS011;48624;49.812;8.562;2024-03-22T02:43:49;18.98;;;12.55;;
62332;SDS011;48624;49.812;8.562;2024-03-22T02:46:14;20.25;;;12.38;;
62332;SDS011;48624;49.812;8.562;2024-03-22T02:48:40;22.17;;;11.38;;
62332;SDS011;48624;49.812;8.562;2024-03-22T02:51:05;18.33;;;11.48;;
62332;SDS011;48624;49.812;8.562;2024-03-22T02:53:30;18.13;;;10.60;;
62332;SDS011;48624;49.812;8.562;2024-03-22T02:55:56;17.00;;;11.18;;
62332;SDS011;48624;49.812;8.562;2024-03-22T02:58:25;15.93;;;10.93;;
62332;SDS011;48624;49.812;8.562;2024-03-22T03:00:50;18.15;;;11.27;;
62332;SDS011;48624;49.812;8.562;2024-03-22T03:03:15;17.73;;;11.63;;
62332;SDS011;48624;49.812;8.562;2024-03-22T03:05:41;16.15;;;10.93;;
62332;SDS011;48624;49.812;8.562;2024-03-22T03:08:07;18.50;;;10.82;;
62332;SDS011;48624;49.812;8.562;2024-03-22T03:10:32;19.52;;;10.85;;
62332;SDS011;48624;49.812;8.562;2024-03-22T03:12:57;16.92;;;9.82;;
62332;SDS011;48624;49.812;8.562;2024-03-22T03:15:23;17.85;;;10.82;;
62332;SDS011;48624;49.812;8.562;2024-03-22T03:17:48;17.23;;;10.48;;
62332;SDS011;48624;49.812;8.562;2024-03-22T03:20:13;17.15;;;9.93;;
62332;SDS011;48624;49.812;8.562;2024-03-22T03:22:42;17.35;;;11.25;;
62332;SDS011;48624;49.812;8.562;2024-03-22T03:25:07;16.00;;;9.73;;
62332;SDS011;48624;49.812;8.562;2024-03-22T03:27:33;16.02;;;10.20;;
62332;SDS011;48624;49.812;8.562;2024-03-22T03:29:59;17.52;;;10.57;;
62332;SDS011;48624;49.812;8.562;2024-03-22T03:32:24;16.75;;;11.20;;
62332;SDS011;48624;49.812;8.562;2024-03-22T03:34:50;22.17;;;12.07;;
62332;SDS011;48624;49.812;8.562;2024-03-22T03:37:16;20.40;;;12.75;;
62332;SDS011;48624;49.812;8.562;2024-03-22T03:39:41;18.15;;;11.18;;
62332;SDS011;48624;49.812;8.562;2024-03-22T03:42:06;16.65;;;11.15;;
62332;SDS011;48624;49.812;8.562;2024-03-22T03:44:32;14.98;;;10.90;;
62332;SDS011;48624;49.812;8.562;2024-03-22T03:46:57;18.23;;;10.82;;
62332;SDS011;48624;49.812;8.562;2024-03-22T03:49:22;19.92;;;12.88;;
62332;SDS011;48624;49.812;8.562;2024-03-22T03:51:47;22.88;;;12.48;;
62332;SDS011;48624;49.812;8.562;2024-03-22T03:54:13;20.05;;;11.40;;
62332;SDS011;48624;49.812;8.562;2024-03-22T03:56:38;23.05;;;13.60;;
62332;SDS011;48624;49.812;8.562;2024-03-22T03:59:03;20.83;;;12.38;;
62332;SDS011;48624;49.812;8.562;2024-03-22T04:01:28;24.42;;;14.40;;
62332;SDS011;48624;49.812;8.562;2024-03-22T04:03:54;24.48;;;14.13;;
62332;SDS011;48624;49.812;8.562;2024-03-22T04:06:19;23.65;;;13.70;;
62332;SDS011;48624;49.812;8.562;2024-03-22T04:08:44;22.38;;;13.02;;
62332;SDS011;48624;49.812;8.562;2024-03-22T04:11:10;22.35;;;12.88;;
62332;SDS011;48624;49.812;8.562;2024-03-22T04:13:36;19.60;;;11.93;;
62332;SDS011;48624;49.812;8.562;2024-03-22T04:16:01;20.20;;;13.13;;
62332;SDS011;48624;49.812;8.562;2024-03-22T04:18:27;24.65;;;13.32;;
62332;SDS011;48624;49.812;8.562;2024-03-22T04:20:55;23.55;;;13.82;;
62332;SDS011;48624;49.812;8.562;2024-03-22T04:23:22;25.80;;;14.65;;
62332;SDS011;48624;49.812;8.562;2024-03-22T04:25:57;22.33;;;13.48;;
62332;SDS011;48624;49.812;8.562;2024-03-22T04:28:27;20.58;;;12.82;;
62332;SDS011;48624;49.812;8.562;2024-03-22T04:31:06;22.55;;;13.52;;
62332;SDS011;48624;49.812;8.562;2024-03-22T04:33:34;21.45;;;13.68;;
62332;SDS011;48624;49.812;8.562;2024-03-22T04:36:00;27.27;;;14.07;;
62332;SDS011;48624;49.812;8.562;2024-03-22T04:38:26;21.02;;;13.45;;
62332;SDS011;48624;49.812;8.562;2024-03-22T04:40:52;25.60;;;14.40;;
62332;SDS011;48624;49.812;8.562;2024-03-22T04:43:18;22.30;;;13.38;;
62332;SDS011;48624;49.812;8.562;2024-03-22T04:45:44;19.17;;;12.50;;
62332;SDS011;48624;49.812;8.562;2024-03-22T04:48:09;19.13;;;11.93;;
62332;SDS011;48624;49.812;8.562;2024-03-22T04:50:35;27.58;;;13.90;;
62332;SDS011;48624;49.812;8.562;2024-03-22T04:53:01;24.42;;;12.88;;
62332;SDS011;48624;49.812;8.562;2024-03-22T04:55:27;18.75;;;11.68;;
62332;SDS011;48624;49.812;8.562;2024-03-22T04:57:52;21.00;;;13.10;;
62332;SDS011;48624;49.812;8.562;2024-03-22T05:00:17;22.23;;;13.50;;
62332;SDS011;48624;49.812;8.562;2024-03-22T05:02:43;23.42;;;13.10;;
62332;SDS011;48624;49.812;8.562;2024-03-22T05:05:08;20.25;;;11.52;;
62332;SDS011;48624;49.812;8.562;2024-03-22T05:07:34;20.80;;;12.07;;
62332;SDS011;48624;49.812;8.562;2024-03-22T05:09:59;20.05;;;13.02;;
62332;SDS011;48624;49.812;8.562;2024-03-22T05:12:25;18.20;;;10.82;;
62332;SDS011;48624;49.812;8.562;2024-03-22T05:14:50;19.40;;;11.98;;
62332;SDS011;48624;49.812;8.562;2024-03-22T05:17:15;21.88;;;11.73;;
62332;SDS011;48624;49.812;8.562;2024-03-22T05:19:41;19.70;;;11.73;;
62332;SDS011;48624;49.812;8.562;2024-03-22T05:22:06;20.20;;;12.50;;
62332;SDS011;48624;49.812;8.562;2024-03-22T05:24:31;19.45;;;12.80;;
62332;SDS011;48624;49.812;8.562;2024-03-22T05:26:57;20.58;;;12.85;;
62332;SDS011;48624;49.812;8.562;2024-03-22T05:29:23;23.77;;;13.10;;
62332;SDS011;48624;49.812;8.562;2024-03-22T05:31:50;17.98;;;11.40;;
62332;SDS011;48624;49.812;8.562;2024-03-22T05:34:17;19.75;;;12.45;;
62332;SDS011;48624;49.812;8.562;2024-03-22T05:36:45;21.40;;;12.15;;
62332;SDS011;48624;49.812;8.562;2024-03-22T05:39:10;21.98;;;13.40;;
62332;SDS011;48624;49.812;8.562;2024-03-22T05:41:36;19.95;;;11.57;;
62332;SDS011;48624;49.812;8.562;2024-03-22T05:44:03;19.13;;;11.45;;
62332;SDS011;48624;49.812;8.562;2024-03-22T05:46:29;21.42;;;13.95;;
62332;SDS011;48624;49.812;8.562;2024-03-22T05:48:54;18.83;;;13.02;;
62332;SDS011;48624;49.812;8.562;2024-03-22T05:51:20;16.48;;;10.77;;
62332;SDS011;48624;49.812;8.562;2024-03-22T05:53:45;18.63;;;10.60;;
62332;SDS011;48624;49.812;8.562;2024-03-22T05:56:11;20.20;;;12.27;;
62332;SDS011;48624;49.812;8.562;2024-03-22T05:58:36;22.10;;;14.00;;
62332;SDS011;48624;49.812;8.562;2024-03-22T06:01:01;18.90;;;11.73;;
62332;SDS011;48624;49.812;8.562;2024-03-22T06:03:28;19.88;;;11.63;;
62332;SDS011;48624;49.812;8.562;2024-03-22T06:05:53;20.80;;;12.40;;
62332;SDS011;48624;49.812;8.562;2024-03-22T06:08:21;17.65;;;11.38;;
62332;SDS011;48624;49.812;8.562;2024-03-22T06:10:47;21.70;;;12.30;;
62332;SDS011;48624;49.812;8.562;2024-03-22T06:13:12;18.98;;;11.02;;
62332;SDS011;48624;49.812;8.562;2024-03-22T06:15:37;20.13;;;11.60;;
62332;SDS011;48624;49.812;8.562;2024-03-22T06:18:03;19.58;;;11.43;;
62332;SDS011;48624;49.812;8.562;2024-03-22T06:20:28;15.35;;;10.90;;
62332;SDS011;48624;49.812;8.562;2024-03-22T06:22:53;15.40;;;10.40;;
62332;SDS011;48624;49.812;8.562;2024-03-22T06:25:19;17.60;;;10.73;;
62332;SDS011;48624;49.812;8.562;2024-03-22T06:27:44;17.67;;;10.20;;
62332;SDS011;48624;49.812;8.562;2024-03-22T06:30:09;15.52;;;9.70;;
62332;SDS011;48624;49.812;8.562;2024-03-22T06:32:36;17.95;;;9.55;;
62332;SDS011;48624;49.812;8.562;2024-03-22T06:35:01;15.57;;;9.65;;
62332;SDS011;48624;49.812;8.562;2024-03-22T06:37:30;15.32;;;9.35;;
62332;SDS011;48624;49.812;8.562;2024-03-22T06:39:56;15.18;;;9.40;;
62332;SDS011;48624;49.812;8.562;2024-03-22T06:42:21;15.60;;;9.85;;
62332;SDS011;48624;49.812;8.562;2024-03-22T06:44:48;15.65;;;10.48;;
62332;SDS011;48624;49.812;8.562;2024-03-22T06:47:13;13.18;;;8.60;;
62332;SDS011;48624;49.812;8.562;2024-03-22T06:49:39;16.77;;;9.93;;
62332;SDS011;48624;49.812;8.562;2024-03-22T06:52:04;13.15;;;9.27;;
62332;SDS011;48624;49.812;8.562;2024-03-22T06:54:29;14.52;;;9.80;;
62332;SDS011;48624;49.812;8.562;2024-03-22T06:56:54;14.82;;;9.45;;
62332;SDS011;48624;49.812;8.562;2024-03-22T06:59:20;12.35;;;9.80;;
62332;SDS011;48624;49.812;8.562;2024-03-22T07:01:45;15.32;;;8.88;;
62332;SDS011;48624;49.812;8.562;2024-03-22T07:04:10;18.83;;;10.77;;
62332;SDS011;48624;49.812;8.562;2024-03-22T07:06:36;17.85;;;10.38;;
62332;SDS011;48624;49.812;8.562;2024-03-22T07:09:01;15.18;;;10.35;;
62332;SDS011;48624;49.812;8.562;2024-03-22T07:11:26;15.90;;;11.10;;
62332;SDS011;48624;49.812;8.562;2024-03-22T07:13:51;14.75;;;11.43;;
62332;SDS011;48624;49.812;8.562;2024-03-22T07:16:18;17.65;;;10.65;;
62332;SDS011;48624;49.812;8.562;2024-03-22T07:18:43;20.52;;;10.40;;
62332;SDS011;48624;49.812;8.562;2024-03-22T07:21:09;13.07;;;9.90;;
62332;SDS011;48624;49.812;8.562;2024-03-22T07:23:34;13.63;;;10.65;;
62332;SDS011;48624;49.812;8.562;2024-03-22T07:25:59;15.35;;;10.57;;
62332;SDS011;48624;49.812;8.562;2024-03-22T07:28:25;15.10;;;10.13;;
62332;SDS011;48624;49.812;8.562;2024-03-22T07:30:50;13.40;;;9.77;;
62332;SDS011;48624;49.812;8.562;2024-03-22T07:33:15;15.52;;;10.63;;
62332;SDS011;48624;49.812;8.562;2024-03-22T07:35:43;16.23;;;10.35;;
62332;SDS011;48624;49.812;8.562;2024-03-22T07:38:08;15.20;;;9.70;;
62332;SDS011;48624;49.812;8.562;2024-03-22T07:40:34;15.90;;;9.60;;
62332;SDS011;48624;49.812;8.562;2024-03-22T07:43:00;13.32;;;9.07;;
62332;SDS011;48624;49.812;8.562;2024-03-22T07:45:30;14.32;;;9.82;;
62332;SDS011;48624;49.812;8.562;2024-03-22T07:47:56;14.32;;;9.70;;
62332;SDS011;48624;49.812;8.562;2024-03-22T07:50:21;15.68;;;9.70;;
62332;SDS011;48624;49.812;8.562;2024-03-22T07:52:46;14.60;;;10.50;;
62332;SDS011;48624;49.812;8.562;2024-03-22T07:55:11;13.32;;;9.50;;
62332;SDS011;48624;49.812;8.562;2024-03-22T07:57:37;14.43;;;10.00;;
62332;SDS011;48624;49.812;8.562;2024-03-22T08:00:02;13.15;;;9.85;;
62332;SDS011;48624;49.812;8.562;2024-03-22T08:02:28;13.25;;;9.55;;
62332;SDS011;48624;49.812;8.562;2024-03-22T08:04:53;10.98;;;8.10;;
62332;SDS011;48624;49.812;8.562;2024-03-22T08:07:18;12.75;;;8.27;;
62332;SDS011;48624;49.812;8.562;2024-03-22T08:09:44;11.20;;;7.97;;
62332;SDS011;48624;49.812;8.562;2024-03-22T08:12:09;14.50;;;9.68;;
62332;SDS011;48624;49.812;8.562;2024-03-22T08:14:34;11.93;;;8.32;;
62332;SDS011;48624;49.812;8.562;2024-03-22T08:17:00;13.02;;;9.48;;
62332;SDS011;48624;49.812;8.562;2024-03-22T08:19:25;13.40;;;9.18;;
62332;SDS011;48624;49.812;8.562;2024-03-22T08:21:50;14.30;;;9.10;;
62332;SDS011;48624;49.812;8.562;2024-03-22T08:24:16;11.95;;;8.82;;
62332;SDS011;48624;49.812;8.562;2024-03-22T08:26:43;13.77;;;9.65;;
62332;SDS011;48624;49.812;8.562;2024-03-22T08:29:11;12.25;;;9.30;;
62332;SDS011;48624;49.812;8.562;2024-03-22T08:31:37;12.27;;;9.20;;
62332;SDS011;48624;49.812;8.562;2024-03-22T08:34:02;13.68;;;8.85;;
62332;SDS011;48624;49.812;8.562;2024-03-22T08:36:28;13.90;;;9.70;;
62332;SDS011;48624;49.812;8.562;2024-03-22T08:38:54;13.63;;;8.75;;
62332;SDS011;48624;49.812;8.562;2024-03-22T08:41:19;17.25;;;10.38;;
62332;SDS011;48624;49.812;8.562;2024-03-22T08:43:44;12.60;;;8.50;;
62332;SDS011;48624;49.812;8.562;2024-03-22T08:46:10;12.55;;;8.90;;
62332;SDS011;48624;49.812;8.562;2024-03-22T08:48:36;14.00;;;8.75;;
62332;SDS011;48624;49.812;8.562;2024-03-22T08:51:02;14.55;;;9.13;;
62332;SDS011;48624;49.812;8.562;2024-03-22T08:53:27;15.00;;;8.93;;
62332;SDS011;48624;49.812;8.562;2024-03-22T08:55:53;19.33;;;10.82;;
62332;SDS011;48624;49.812;8.562;2024-03-22T08:58:18;13.15;;;9.75;;
62332;SDS011;48624;49.812;8.562;2024-03-22T09:00:44;15.27;;;11.48;;
62332;SDS011;48624;49.812;8.562;2024-03-22T09:03:09;17.23;;;13.98;;
62332;SDS011;48624;49.812;8.562;2024-03-22T09:05:35;16.10;;;12.23;;
62332;SDS011;48624;49.812;8.562;2024-03-22T09:08:01;15.73;;;12.57;;
62332;SDS011;48624;49.812;8.562;2024-03-22T09:10:28;11.75;;;9.50;;
62332;SDS011;48624;49.812;8.562;2024-03-22T09:12:54;10.82;;;8.30;;
62332;SDS011;48624;49.812;8.562;2024-03-22T09:15:20;12.20;;;8.90;;
62332;SDS011;48624;49.812;8.562;2024-03-22T09:17:46;14.07;;;10.73;;
62332;SDS011;48624;49.812;8.562;2024-03-22T09:20:11;17.98;;;10.88;;
62332;SDS011;48624;49.812;8.562;2024-03-22T09:22:37;14.60;;;10.00;;
62332;SDS011;48624;49.812;8.562;2024-03-22T09:25:04;13.30;;;10.13;;
62332;SDS011;48624;49.812;8.562;2024-03-22T09:27:30;11.88;;;9.18;;
62332;SDS011;48624;49.812;8.562;2024-03-22T09:29:55;12.07;;;8.82;;
62332;SDS011;48624;49.812;8.562;2024-03-22T09:32:20;12.15;;;8.90;;
62332;SDS011;48624;49.812;8.562;2024-03-22T09:34:48;9.50;;;8.43;;
62332;SDS011;48624;49.812;8.562;2024-03-22T09:37:14;9.75;;;7.50;;
62332;SDS011;48624;49.812;8.562;2024-03-22T09:39:39;10.85;;;8.07;;
62332;SDS011;48624;49.812;8.562;2024-03-22T09:42:05;11.23;;;8.50;;
62332;SDS011;48624;49.812;8.562;2024-03-22T09:44:32;11.40;;;7.55;;
62332;SDS011;48624;49.812;8.562;2024-03-22T09:46:57;12.15;;;9.20;;
62332;SDS011;48624;49.812;8.562;2024-03-22T09:49:24;10.48;;;7.90;;
62332;SDS011;48624;49.812;8.562;2024-03-22T09:51:51;12.73;;;8.23;;
62332;SDS011;48624;49.812;8.562;2024-03-22T09:54:16;13.35;;;8.75;;
62332;SDS011;48624;49.812;8.562;2024-03-22T09:56:42;11.57;;;7.60;;
62332;SDS011;48624;49.812;8.562;2024-03-22T09:59:08;11.73;;;8.55;;
62332;SDS011;48624;49.812;8.562;2024-03-22T10:01:35;12.52;;;7.75;;
62332;SDS011;48624;49.812;8.562;2024-03-22T10:04:01;14.48;;;8.63;;
62332;SDS011;48624;49.812;8.562;2024-03-22T10:06:27;8.70;;;5.72;;
62332;SDS011;48624;49.812;8.562;2024-03-22T10:08:54;8.38;;;6.32;;
62332;SDS011;48624;49.812;8.562;2024-03-22T10:11:19;13.13;;;7.38;;
62332;SDS011;48624;49.812;8.562;2024-03-22T10:13:44;9.57;;;6.18;;
62332;SDS011;48624;49.812;8.562;2024-03-22T10:16:10;9.18;;;6.07;;
62332;SDS011;48624;49.812;8.562;2024-03-22T10:18:36;7.72;;;5.78;;
62332;SDS011;48624;49.812;8.562;2024-03-22T10:21:04;7.88;;;6.05;;
62332;SDS011;48624;49.812;8.562;2024-03-22T10:23:30;9.35;;;5.45;;
62332;SDS011;48624;49.812;8.562;2024-03-22T10:25:56;7.40;;;5.45;;
62332;SDS011;48624;49.812;8.562;2024-03-22T10:28:25;8.95;;;6.35;;
62332;SDS011;48624;49.812;8.562;2024-03-22T10:30:52;8.80;;;5.93;;
62332;SDS011;48624;49.812;8.562;2024-03-22T10:33:21;5.97;;;5.10;;
62332;SDS011;48624;49.812;8.562;2024-03-22T10:35:52;7.95;;;6.22;;
62332;SDS011;48624;49.812;8.562;2024-03-22T10:38:19;9.85;;;5.60;;
62332;SDS011;48624;49.812;8.562;2024-03-22T10:40:45;7.97;;;4.70;;
62332;SDS011;48624;49.812;8.562;2024-03-22T10:43:12;12.20;;;6.22;;
62332;SDS011;48624;49.812;8.562;2024-03-22T10:45:38;8.82;;;5.55;;
62332;SDS011;48624;49.812;8.562;2024-03-22T10:48:07;9.70;;;5.40;;
62332;SDS011;48624;49.812;8.562;2024-03-22T10:50:34;7.88;;;5.88;;
62332;SDS011;48624;49.812;8.562;2024-03-22T10:53:03;9.40;;;7.30;;
62332;SDS011;48624;49.812;8.562;2024-03-22T10:55:35;9.93;;;6.35;;
62332;SDS011;48624;49.812;8.562;2024-03-22T10:58:04;9.43;;;6.60;;
62332;SDS011;48624;49.812;8.562;2024-03-22T11:00:33;11.60;;;6.82;;
62332;SDS011;48624;49.812;8.562;2024-03-22T11:03:03;11.52;;;7.50;;
62332;SDS011;48624;49.812;8.562;2024-03-22T11:05:29;12.80;;;7.53;;
62332;SDS011;48624;49.812;8.562;2024-03-22T11:07:58;12.20;;;7.10;;
62332;SDS011;48624;49.812;8.562;2024-03-22T11:10:31;11.45;;;6.78;;
62332;SDS011;48624;49.812;8.562;2024-03-22T11:13:02;8.27;;;6.63;;
62332;SDS011;48624;49.812;8.562;2024-03-22T11:15:28;7.80;;;6.47;;
62332;SDS011;48624;49.812;8.562;2024-03-22T11:17:54;13.75;;;7.75;;
62332;SDS011;48624;49.812;8.562;2024-03-22T11:20:20;12.13;;;6.88;;
62332;SDS011;48624;49.812;8.562;2024-03-22T11:22:46;12.35;;;6.82;;
62332;SDS011;48624;49.812;8.562;2024-03-22T11:25:11;11.88;;;6.15;;
62332;SDS011;48624;49.812;8.562;2024-03-22T11:27:37;13.23;;;7.13;;
62332;SDS011;48624;49.812;8.562;2024-03-22T11:30:02;9.70;;;6.93;;
62332;SDS011;48624;49.812;8.562;2024-03-22T11:32:28;7.40;;;5.00;;
62332;SDS011;48624;49.812;8.562;2024-03-22T11:34:54;9.88;;;6.32;;
62332;SDS011;48624;49.812;8.562;2024-03-22T11:37:19;10.48;;;5.72;;
62332;SDS011;48624;49.812;8.562;2024-03-22T11:39:44;8.10;;;5.90;;
62332;SDS011;48624;49.812;8.562;2024-03-22T11:42:10;8.45;;;5.70;;
62332;SDS011;48624;49.812;8.562;2024-03-22T11:44:36;11.02;;;5.47;;
62332;SDS011;48624;49.812;8.562;2024-03-22T11:47:05;8.02;;;4.88;;
62332;SDS011;48624;49.812;8.562;2024-03-22T11:49:31;6.20;;;4.72;;
62332;SDS011;48624;49.812;8.562;2024-03-22T11:51:56;6.30;;;4.97;;
62332;SDS011;48624;49.812;8.562;2024-03-22T11:54:22;6.35;;;5.05;;
62332;SDS011;48624;49.812;8.562;2024-03-22T11:56:51;7.47;;;4.70;;
62332;SDS011;48624;49.812;8.562;2024-03-22T11:59:19;8.27;;;5.72;;
62332;SDS011;48624;49.812;8.562;2024-03-22T12:01:45;14.20;;;5.45;;
62332;SDS011;48624;49.812;8.562;2024-03-22T12:04:10;6.47;;;5.22;;
62332;SDS011;48624;49.812;8.562;2024-03-22T12:06:40;9.02;;;5.28;;
62332;SDS011;48624;49.812;8.562;2024-03-22T12:09:07;9.88;;;6.03;;
62332;SDS011;48624;49.812;8.562;2024-03-22T12:11:33;6.72;;;4.40;;
62332;SDS011;48624;49.812;8.562;2024-03-22T12:13:58;7.55;;;5.47;;
62332;SDS011;48624;49.812;8.562;2024-03-22T12:16:24;8.98;;;5.78;;
62332;SDS011;48624;49.812;8.562;2024-03-22T12:18:49;8.70;;;5.65;;
62332;SDS011;48624;49.812;8.562;2024-03-22T12:21:14;6.95;;;5.68;;
62332;SDS011;48624;49.812;8.562;2024-03-22T12:23:39;9.88;;;7.15;;
62332;SDS011;48624;49.812;8.562;2024-03-22T12:26:05;8.07;;;5.95;;
62332;SDS011;48624;49.812;8.562;2024-03-22T12:28:31;8.40;;;5.82;;
62332;SDS011;48624;49.812;8.562;2024-03-22T12:30:57;11.20;;;5.78;;
62332;SDS011;48624;49.812;8.562;2024-03-22T12:33:23;8.63;;;5.93;;
62332;SDS011;48624;49.812;8.562;2024-03-22T12:35:48;9.32;;;6.38;;
62332;SDS011;48624;49.812;8.562;2024-03-22T12:40:45;9.60;;;6.43;;
62332;SDS011;48624;49.812;8.562;2024-03-22T12:43:11;10.50;;;6.55;;
62332;SDS011;48624;49.812;8.562;2024-03-22T12:45:37;10.75;;;8.00;;
62332;SDS011;48624;49.812;8.562;2024-03-22T12:48:02;8.38;;;6.68;;
62332;SDS011;48624;49.812;8.562;2024-03-22T12:50:29;12.43;;;8.82;;
62332;SDS011;48624;49.812;8.562;2024-03-22T12:52:55;11.27;;;7.20;;
62332;SDS011;48624;49.812;8.562;2024-03-22T12:55:20;10.38;;;7.32;;
62332;SDS011;48624;49.812;8.562;2024-03-22T12:57:46;10.60;;;7.82;;
62332;SDS011;48624;49.812;8.562;2024-03-22T13:00:11;9.98;;;7.75;;
62332;SDS011;48624;49.812;8.562;2024-03-22T13:02:43;9.18;;;7.20;;
62332;SDS011;48624;49.812;8.562;2024-03-22T13:05:09;11.05;;;8.43;;
62332;SDS011;48624;49.812;8.562;2024-03-22T13:07:35;11.25;;;7.78;;
62332;SDS011;48624;49.812;8.562;2024-03-22T13:10:01;10.50;;;8.80;;
62332;SDS011;48624;49.812;8.562;2024-03-22T13:12:27;12.32;;;9.98;;
62332;SDS011;48624;49.812;8.562;2024-03-22T13:14:53;14.15;;;11.23;;
62332;SDS011;48624;49.812;8.562;2024-03-22T13:17:19;13.60;;;10.25;;
62332;SDS011;48624;49.812;8.562;2024-03-22T13:19:45;16.80;;;10.77;;
62332;SDS011;48624;49.812;8.562;2024-03-22T13:22:10;15.63;;;11.02;;
62332;SDS011;48624;49.812;8.562;2024-03-22T13:24:37;18.92;;;12.02;;
62332;SDS011;48624;49.812;8.562;2024-03-22T13:27:02;16.08;;;11.80;;
62332;SDS011;48624;49.812;8.562;2024-03-22T13:29:28;16.83;;;11.80;;
62332;SDS011;48624;49.812;8.562;2024-03-22T13:31:54;14.50;;;11.70;;
62332;SDS011;48624;49.812;8.562;2024-03-22T13:34:19;16.35;;;10.32;;
62332;SDS011;48624;49.812;8.562;2024-03-22T13:36:44;12.02;;;9.73;;
62332;SDS011;48624;49.812;8.562;2024-03-22T13:39:09;12.38;;;9.60;;
62332;SDS011;48624;49.812;8.562;2024-03-22T13:41:36;14.20;;;11.02;;
62332;SDS011;48624;49.812;8.562;2024-03-22T13:44:02;13.70;;;10.85;;
62332;SDS011;48624;49.812;8.562;2024-03-22T13:46:33;14.48;;;10.73;;
62332;SDS011;48624;49.812;8.562;2024-03-22T13:49:01;13.30;;;9.10;;
62332;SDS011;48624;49.812;8.562;2024-03-22T13:51:26;14.85;;;11.30;;
62332;SDS011;48624;49.812;8.562;2024-03-22T13:53:53;13.80;;;10.77;;
62332;SDS011;48624;49.812;8.562;2024-03-22T13:56:18;15.52;;;10.95;;
62332;SDS011;48624;49.812;8.562;2024-03-22T13:58:43;12.95;;;10.20;;
62332;SDS011;48624;49.812;8.562;2024-03-22T14:01:09;12.52;;;11.00;;
62332;SDS011;48624;49.812;8.562;2024-03-22T14:03:36;17.33;;;12.10;;
62332;SDS011;48624;49.812;8.562;2024-03-22T14:06:01;15.07;;;11.85;;
62332;SDS011;48624;49.812;8.562;2024-03-22T14:08:27;16.58;;;12.65;;
62332;SDS011;48624;49.812;8.562;2024-03-22T14:10:53;19.25;;;11.90;;
62332;SDS011;48624;49.812;8.562;2024-03-22T14:13:18;18.70;;;12.98;;
62332;SDS011;48624;49.812;8.562;2024-03-22T14:15:43;13.88;;;10.60;;
62332;SDS011;48624;49.812;8.562;2024-03-22T14:18:09;20.02;;;13.02;;
62332;SDS011;48624;49.812;8.562;2024-03-22T14:20:34;12.13;;;10.80;;
62332;SDS011;48624;49.812;8.562;2024-03-22T14:23:00;14.85;;;9.38;;
62332;SDS011;48624;49.812;8.562;2024-03-22T14:25:25;13.95;;;10.00;;